Time;durP1;ratioP1;P1;durP2;ratioP2;P2;SDS_P1;SDS_P2;PMS_P1;PMS_P2;Temp;Humidity;BMP_temperature;BMP_pressure;BME280_temperature;BME280_humidity;BME280_pressure;Samples;Min_cycle;Max_cycle;Signal;HPM_P1;HPM_P2
2021/11/12 00:13:41;;;;;;;0.00;0.00;;;24.90;99.90;;;;;;5081675;28;20055;-73
2021/11/12 00:16:08;;;;;;;0.00;0.00;;;24.90;99.30;;;;;;5080334;28;20028;-72
2021/11/12 00:18:37;;;;;;;0.05;0.05;;;24.60;99.90;;;;;;5078216;28;20040;-74
2021/11/12 00:21:06;;;;;;;0.05;0.05;;;24.20;99.40;;;;;;5079358;28;20592;-74
2021/11/12 00:23:37;;;;;;;1.38;0.00;;;23.80;99.90;;;;;;5080091;28;20032;-73
2021/11/12 00:26:05;;;;;;;0.00;0.00;;;23.60;99.90;;;;;;5081831;28;20028;-74
2021/11/12 00:28:38;;;;;;;0.25;0.25;;;23.50;99.90;;;;;;5075714;28;20383;-72
2021/11/12 00:31:19;;;;;;;0.17;0.00;;;23.60;99.90;;;;;;5075094;28;20471;-73
2021/11/12 00:36:40;;;;;;;0.10;0.00;;;24.50;99.90;;;;;;5081296;28;20084;-74
2021/11/12 00:39:13;;;;;;;0.00;0.00;;;24.80;99.90;;;;;;5077474;28;20047;-77
2021/11/12 00:41:53;;;;;;;0.35;0.32;;;24.70;99.90;;;;;;5061557;28;20085;-73
2021/11/12 00:44:30;;;;;;;0.35;0.00;;;24.70;99.90;;;;;;5079806;28;20441;-73
2021/11/12 00:47:08;;;;;;;0.00;0.00;;;24.60;99.60;;;;;;5086004;28;20020;-72
2021/11/12 00:49:39;;;;;;;0.00;0.00;;;24.40;99.90;;;;;;5080600;28;20107;-74
2021/11/12 00:52:11;;;;;;;0.00;0.00;;;24.10;99.90;;;;;;5083428;28;20474;-74
2021/11/12 00:54:39;;;;;;;0.00;0.00;;;24.10;99.90;;;;;;5090154;28;20030;-74
2021/11/12 00:57:07;;;;;;;0.30;0.00;;;24.20;99.90;;;;;;5089114;28;20028;-74
2021/11/12 00:59:35;;;;;;;0.38;0.00;;;24.20;99.90;;;;;;5089980;28;20028;-75
2021/11/12 01:02:02;;;;;;;0.05;0.05;;;24.30;99.90;;;;;;5074856;28;20620;-78
2021/11/12 01:04:30;;;;;;;0.00;0.00;;;24.40;99.90;;;;;;5078031;28;20031;-74
2021/11/12 01:06:57;;;;;;;0.22;0.10;;;24.60;99.90;;;;;;5083158;28;20103;-75
2021/11/12 01:09:24;;;;;;;0.13;0.10;;;24.50;99.90;;;;;;5090738;28;20024;-75
2021/11/12 01:11:52;;;;;;;0.10;0.00;;;24.40;99.90;;;;;;5068804;28;20035;-76
2021/11/12 01:14:26;;;;;;;1.58;0.20;;;24.20;99.90;;;;;;5086191;28;20029;-75
2021/11/12 01:16:54;;;;;;;0.10;0.00;;;24.20;99.90;;;;;;5084823;28;21553;-75
2021/11/12 01:19:21;;;;;;;0.17;0.10;;;23.70;99.90;;;;;;5068794;28;20032;-77
2021/11/12 01:21:49;;;;;;;1.75;0.10;;;23.50;99.90;;;;;;5083339;28;20059;-76
2021/11/12 01:24:16;;;;;;;0.50;0.43;;;23.50;99.90;;;;;;5087002;28;20036;-75
2021/11/12 01:26:44;;;;;;;1.00;0.63;;;23.70;99.90;;;;;;5084023;28;20089;-78
2021/11/12 01:29:12;;;;;;;0.20;0.10;;;23.70;99.90;;;;;;5080079;28;20111;-76
2021/11/12 01:31:40;;;;;;;1.00;0.30;;;23.80;99.90;;;;;;5076867;28;20032;-75
2021/11/12 01:34:09;;;;;;;0.88;0.15;;;23.70;99.90;;;;;;5085281;28;20422;-76
2021/11/12 01:36:40;;;;;;;0.22;0.10;;;23.40;99.90;;;;;;5085714;28;20021;-76
2021/11/12 01:39:20;;;;;;;1.02;0.20;;;23.30;99.90;;;;;;5080782;28;20066;-77
2021/11/12 01:41:52;;;;;;;0.55;0.20;;;23.50;99.90;;;;;;5084386;28;20046;-80
2021/11/12 01:44:30;;;;;;;3.40;0.68;;;23.40;99.90;;;;;;5092181;28;20035;-77
2021/11/12 01:49:50;;;;;;;0.10;0.10;;;23.50;99.90;;;;;;5087931;28;20027;-79
2021/11/12 01:52:22;;;;;;;0.57;0.20;;;23.90;99.90;;;;;;5078873;28;20810;-77
2021/11/12 01:55:04;;;;;;;1.20;0.63;;;24.00;99.90;;;;;;5083810;28;20038;-75
2021/11/12 02:00:00;;;;;;;1.55;0.32;;;24.30;99.90;;;;;;5093367;28;20410;-78
2021/11/12 02:02:28;;;;;;;0.52;0.22;;;24.40;99.90;;;;;;5087441;28;20036;-78
2021/11/12 02:04:55;;;;;;;2.17;0.40;;;24.50;99.90;;;;;;5089781;28;20107;-75
2021/11/12 02:07:23;;;;;;;0.30;0.20;;;24.30;99.90;;;;;;5084971;28;20058;-77
2021/11/12 02:09:53;;;;;;;0.32;0.20;;;24.10;99.90;;;;;;5092756;28;20540;-75
2021/11/12 02:12:31;;;;;;;0.35;0.28;;;24.00;99.90;;;;;;5070525;28;21376;-79
2021/11/12 02:14:59;;;;;;;1.00;0.30;;;24.70;99.90;;;;;;5083316;28;20142;-78
2021/11/12 02:17:34;;;;;;;2.00;0.10;;;25.50;99.90;;;;;;5083339;28;20032;-76
2021/11/12 02:23:01;;;;;;;1.55;0.40;;;25.80;98.40;;;;;;5069968;28;20119;-81
2021/11/12 02:25:34;;;;;;;0.10;0.10;;;25.50;99.30;;;;;;5085266;28;20058;-77
2021/11/12 02:28:07;;;;;;;0.10;0.10;;;25.50;98.60;;;;;;5075577;28;20032;-75
2021/11/12 02:30:35;;;;;;;0.32;0.20;;;25.60;99.20;;;;;;5065698;28;20028;-76
2021/11/12 02:33:12;;;;;;;2.15;0.30;;;25.80;99.00;;;;;;5083158;28;20071;-79
2021/11/12 02:36:00;;;;;;;1.02;0.40;;;25.90;99.30;;;;;;5096400;28;20111;-76
2021/11/12 02:38:29;;;;;;;2.67;0.20;;;26.40;99.00;;;;;;5085894;28;20805;-75
2021/11/12 02:40:57;;;;;;;1.48;0.10;;;27.00;98.00;;;;;;5095082;28;20060;-78
2021/11/12 02:43:26;;;;;;;0.68;0.20;;;27.20;97.80;;;;;;5077713;28;20036;-77
2021/11/12 02:45:54;;;;;;;0.20;0.20;;;26.70;97.70;;;;;;5080705;28;20029;-75
2021/11/12 02:48:22;;;;;;;0.13;0.10;;;26.20;98.00;;;;;;5086421;28;20024;-75
2021/11/12 02:50:49;;;;;;;0.80;0.30;;;25.80;98.50;;;;;;5085443;28;20032;-76
2021/11/12 02:53:17;;;;;;;0.35;0.13;;;25.50;99.40;;;;;;5080776;28;20040;-76
2021/11/12 02:55:45;;;;;;;1.15;0.20;;;25.10;99.20;;;;;;5086592;28;20036;-77
2021/11/12 02:58:14;;;;;;;0.20;0.15;;;25.00;99.50;;;;;;5085981;28;21370;-75
2021/11/12 03:00:43;;;;;;;0.40;0.10;;;24.90;99.90;;;;;;5078804;28;20036;-77
2021/11/12 03:03:11;;;;;;;1.10;0.28;;;25.20;99.90;;;;;;5078199;28;20070;-76
2021/11/12 03:05:38;;;;;;;3.83;0.55;;;25.40;99.60;;;;;;5080566;28;20036;-74
2021/11/12 03:08:06;;;;;;;0.45;0.25;;;25.50;99.20;;;;;;5080670;28;20035;-77
2021/11/12 03:10:33;;;;;;;0.85;0.13;;;25.90;99.40;;;;;;5078668;28;20488;-75
2021/11/12 03:13:01;;;;;;;0.50;0.28;;;26.40;98.30;;;;;;5082388;28;20067;-77
2021/11/12 03:15:29;;;;;;;0.40;0.20;;;26.50;99.10;;;;;;5078288;28;20026;-78
2021/11/12 03:17:58;;;;;;;1.00;0.20;;;26.70;98.90;;;;;;5083876;28;20020;-79
2021/11/12 03:20:28;;;;;;;2.40;0.20;;;26.60;97.50;;;;;;5078908;28;20386;-75
2021/11/12 03:25:42;;;;;;;0.68;0.25;;;26.50;98.00;;;;;;5081158;28;20020;-75
2021/11/12 04:01:40;;;;;;;3.28;0.20;;;28.30;96.60;;;;;;5015790;28;20092;-78
2021/11/12 04:04:24;;;;;;;4.03;0.30;;;28.20;95.60;;;;;;5063508;28;20554;-76
2021/11/12 04:07:16;;;;;;;4.07;0.40;;;27.60;95.30;;;;;;5078438;28;20031;-75
2021/11/12 04:18:09;;;;;;;3.17;0.52;;;28.00;96.00;;;;;;5078850;28;20035;-75
2021/11/12 04:40:31;;;;;;;1.65;0.52;;;26.90;97.20;;;;;;5084374;28;20031;-77
2021/11/12 05:56:10;;;;;;;1.58;0.65;;;23.40;99.90;;;;;;5079291;28;20100;-76
2021/11/12 05:58:37;;;;;;;0.70;0.50;;;23.60;99.90;;;;;;5089043;28;20031;-75
2021/11/12 06:01:05;;;;;;;1.13;0.65;;;23.60;99.90;;;;;;5080591;28;20052;-76
2021/11/12 06:03:32;;;;;;;1.98;0.50;;;23.40;99.90;;;;;;5083499;28;20040;-76
2021/11/12 06:06:00;;;;;;;4.35;0.73;;;23.40;99.90;;;;;;5081754;28;20021;-76
2021/11/12 06:08:27;;;;;;;2.13;0.50;;;23.50;99.90;;;;;;5083055;28;20031;-75
2021/11/12 06:10:55;;;;;;;0.85;0.50;;;23.50;99.90;;;;;;5063979;28;21762;-78
2021/11/12 06:13:22;;;;;;;1.55;0.73;;;23.50;99.90;;;;;;5081472;28;20472;-77
2021/11/12 06:15:49;;;;;;;2.22;0.80;;;23.30;99.90;;;;;;5087285;28;20021;-75
2021/11/12 06:18:17;;;;;;;2.28;0.50;;;23.40;99.90;;;;;;5077745;28;20043;-76
2021/11/12 06:20:45;;;;;;;4.72;0.65;;;23.40;99.90;;;;;;5084907;28;20039;-76
2021/11/12 06:23:12;;;;;;;1.35;0.68;;;23.40;99.90;;;;;;5082544;28;20028;-74
2021/11/12 06:25:40;;;;;;;4.15;0.77;;;23.30;99.90;;;;;;5078197;28;20123;-78
2021/11/12 06:28:07;;;;;;;5.00;0.90;;;23.20;99.90;;;;;;5083314;28;20149;-78
2021/11/12 06:30:34;;;;;;;0.57;0.35;;;23.20;99.90;;;;;;5083269;28;20065;-80
2021/11/12 06:33:02;;;;;;;1.30;0.40;;;23.30;99.90;;;;;;5080598;28;20471;-78
2021/11/12 06:35:29;;;;;;;0.73;0.30;;;23.50;99.90;;;;;;5082721;28;20031;-79
2021/11/12 06:37:57;;;;;;;4.45;0.60;;;23.70;99.90;;;;;;5085401;28;20069;-78
2021/11/12 06:40:24;;;;;;;4.70;0.80;;;23.80;99.90;;;;;;5084194;28;20679;-77
2021/11/12 06:43:23;;;;;;;2.17;0.47;;;23.70;99.90;;;;;;5090087;28;20103;-79
2021/11/12 06:51:23;;;;;;;3.42;0.73;;;23.30;99.90;;;;;;5091297;28;20317;-79
2021/11/12 06:53:53;;;;;;;3.28;0.98;;;23.20;99.90;;;;;;5094373;28;20375;-79
2021/11/12 06:56:22;;;;;;;1.30;0.52;;;23.10;99.90;;;;;;5092047;28;20039;-78
2021/11/12 06:58:49;;;;;;;0.57;0.40;;;23.10;99.90;;;;;;5085534;28;20038;-77
2021/11/12 07:01:17;;;;;;;1.52;0.50;;;23.10;99.90;;;;;;5084746;28;20028;-77
2021/11/12 07:03:45;;;;;;;1.77;0.50;;;23.00;99.90;;;;;;5091015;28;20047;-75
2021/11/12 07:06:14;;;;;;;4.88;1.20;;;23.00;99.90;;;;;;5091105;28;20073;-75
2021/11/12 07:08:41;;;;;;;2.15;0.77;;;23.00;99.90;;;;;;5082430;28;20406;-77
2021/11/12 07:11:08;;;;;;;3.33;0.70;;;22.90;99.90;;;;;;5089365;28;20384;-75
2021/11/12 07:13:37;;;;;;;2.50;0.50;;;22.80;99.90;;;;;;5086520;28;20038;-78
2021/11/12 07:16:04;;;;;;;0.60;0.50;;;22.60;99.90;;;;;;5088017;28;20197;-76
2021/11/12 07:18:32;;;;;;;2.85;0.52;;;22.60;99.90;;;;;;5087483;28;20085;-79
2021/11/12 07:21:00;;;;;;;4.68;0.63;;;22.60;99.80;;;;;;5086493;28;20534;-77
2021/11/12 07:23:27;;;;;;;1.48;0.52;;;22.80;99.80;;;;;;5080760;28;20028;-78
2021/11/12 07:25:56;;;;;;;4.20;0.20;;;22.90;97.60;;;;;;5086522;28;20020;-77
2021/11/12 07:28:30;;;;;;;;;;;23.10;90.30;;;;;;5085128;28;20036;-81
2021/11/12 07:31:00;;;;;;;3.45;0.50;;;23.20;88.80;;;;;;5090350;28;19962;-75
2021/11/12 07:33:28;;;;;;;0.57;0.05;;;23.30;88.50;;;;;;5078422;28;20070;-78
2021/11/12 07:36:04;;;;;;;0.82;0.20;;;23.40;85.60;;;;;;5061475;28;20621;-76
2021/11/12 07:38:44;;;;;;;1.00;0.10;;;23.40;86.20;;;;;;5081575;28;20043;-78
2021/11/12 07:49:00;;;;;;;4.15;0.20;;;23.30;87.90;;;;;;5091114;28;20052;-74
2021/11/12 07:51:28;;;;;;;6.32;0.38;;;23.20;86.70;;;;;;5080527;28;20111;-77
2021/11/12 07:53:56;;;;;;;0.10;0.00;;;23.10;85.20;;;;;;5085366;28;20047;-75
2021/11/12 07:56:24;;;;;;;0.32;0.08;;;22.90;84.40;;;;;;5079243;28;20020;-80
2021/11/12 07:58:52;;;;;;;0.30;0.10;;;22.90;87.10;;;;;;5082836;28;20063;-76
2021/11/12 08:01:19;;;;;;;0.40;0.10;;;22.80;86.50;;;;;;5080601;28;20016;-76
2021/11/12 08:03:50;;;;;;;2.38;0.10;;;22.70;86.40;;;;;;5078589;28;20033;-84
2021/11/12 08:06:19;;;;;;;1.48;0.82;;;22.60;86.80;;;;;;5080035;28;20024;-76
2021/11/12 08:09:01;;;;;;;0.73;0.10;;;22.50;86.60;;;;;;5088814;28;20032;-76
2021/11/12 08:11:33;;;;;;;0.73;0.00;;;22.40;86.60;;;;;;5079813;28;20113;-75
2021/11/12 08:14:10;;;;;;;1.10;0.10;;;22.20;86.70;;;;;;5079720;28;20482;-73
2021/11/12 08:24:33;;;;;;;2.08;0.50;;;21.70;88.30;;;;;;5082465;28;20024;-80
2021/11/12 08:27:19;;;;;;;0.08;0.00;;;21.60;88.90;;;;;;5076307;28;20031;-75
2021/11/12 08:32:44;;;;;;;0.40;0.00;;;21.40;89.60;;;;;;5075729;28;20035;-75
2021/11/12 08:42:52;;;;;;;0.38;0.00;;;21.20;91.40;;;;;;5081929;28;20032;-78
2021/11/12 08:45:24;;;;;;;0.38;0.35;;;21.10;91.10;;;;;;5082331;28;20027;-75
2021/11/12 08:47:55;;;;;;;0.10;0.00;;;21.00;91.10;;;;;;5065237;28;20024;-76
2021/11/12 08:50:23;;;;;;;0.63;0.00;;;21.00;91.00;;;;;;5078280;28;20029;-82
2021/11/12 08:53:01;;;;;;;0.43;0.00;;;20.90;91.20;;;;;;5079432;28;20020;-74
2021/11/12 08:55:30;;;;;;;1.42;0.10;;;20.90;91.30;;;;;;5082543;28;20110;-75
2021/11/12 08:57:59;;;;;;;0.00;0.00;;;20.80;91.30;;;;;;5061830;28;20498;-74
2021/11/12 09:00:27;;;;;;;0.45;0.00;;;20.70;91.60;;;;;;5078823;28;20024;-76
2021/11/12 09:02:58;;;;;;;0.00;0.00;;;20.60;92.00;;;;;;5080025;28;20028;-78
2021/11/12 09:05:26;;;;;;;1.95;0.10;;;20.60;92.00;;;;;;5081218;28;20059;-77
2021/11/12 09:07:54;;;;;;;0.20;0.10;;;20.50;92.00;;;;;;5079584;28;20111;-74
2021/11/12 09:10:24;;;;;;;0.70;0.30;;;20.50;92.10;;;;;;5075924;28;20119;-75
2021/11/12 09:13:17;;;;;;;0.55;0.30;;;20.40;92.40;;;;;;5081534;28;20032;-75
2021/11/12 09:15:52;;;;;;;1.20;0.45;;;20.40;92.60;;;;;;5079282;28;20071;-74
2021/11/12 09:18:22;;;;;;;1.33;0.20;;;20.30;92.90;;;;;;5080221;28;20024;-76
2021/11/12 09:20:51;;;;;;;2.38;0.50;;;20.20;92.60;;;;;;5084744;28;20034;-75
2021/11/12 09:23:19;;;;;;;2.10;0.30;;;20.20;92.70;;;;;;5079407;28;20059;-80
2021/11/12 09:25:46;;;;;;;3.95;0.85;;;20.20;92.80;;;;;;5084425;28;20085;-75
2021/11/12 09:28:15;;;;;;;2.95;0.90;;;20.20;92.60;;;;;;5087946;28;20030;-78
2021/11/12 09:30:43;;;;;;;1.95;0.30;;;20.20;92.90;;;;;;5086310;28;20102;-75
2021/11/12 09:33:11;;;;;;;0.35;0.25;;;20.10;93.40;;;;;;5084113;28;20054;-77
2021/11/12 09:35:39;;;;;;;1.35;0.25;;;20.00;93.70;;;;;;5083568;28;20052;-77
2021/11/12 09:38:06;;;;;;;1.73;0.50;;;19.90;94.00;;;;;;5082467;28;20112;-73
2021/11/12 09:40:34;;;;;;;1.30;0.70;;;19.80;94.30;;;;;;5083471;28;20434;-78
2021/11/12 09:43:01;;;;;;;1.35;0.60;;;19.80;94.30;;;;;;5087296;28;20032;-77
2021/11/12 09:45:29;;;;;;;1.00;0.13;;;19.70;94.10;;;;;;5078882;28;20110;-73
2021/11/12 09:47:57;;;;;;;1.13;0.20;;;19.70;93.70;;;;;;5082759;28;20024;-75
2021/11/12 09:50:29;;;;;;;0.38;0.10;;;19.90;93.70;;;;;;5082982;28;20058;-77
2021/11/12 09:52:58;;;;;;;0.57;0.20;;;19.90;93.80;;;;;;5082738;28;20074;-75
2021/11/12 09:55:27;;;;;;;4.47;0.32;;;19.90;93.80;;;;;;5086476;28;20020;-75
2021/11/12 09:57:54;;;;;;;0.60;0.43;;;19.80;93.90;;;;;;5084859;28;20081;-74
2021/11/12 10:00:26;;;;;;;0.45;0.20;;;19.80;94.10;;;;;;5067721;28;20071;-78
2021/11/12 10:02:57;;;;;;;2.67;0.20;;;19.70;94.20;;;;;;5083701;28;20032;-77
2021/11/12 10:05:41;;;;;;;1.75;0.30;;;19.80;94.30;;;;;;5085126;28;20048;-74
2021/11/12 10:08:29;;;;;;;1.05;0.20;;;19.70;94.20;;;;;;5081800;28;20056;-77
2021/11/12 10:11:09;;;;;;;0.98;0.20;;;19.70;94.70;;;;;;5064732;28;20132;-74
2021/11/12 10:13:41;;;;;;;1.23;0.20;;;19.60;95.00;;;;;;5084471;28;20032;-79
2021/11/12 10:19:12;;;;;;;0.25;0.10;;;19.50;95.00;;;;;;5081374;28;20384;-77
2021/11/12 10:22:03;;;;;;;0.85;0.22;;;19.50;95.20;;;;;;5083132;28;20111;-78
2021/11/12 10:24:34;;;;;;;0.43;0.10;;;19.50;95.40;;;;;;5079793;28;20032;-76
2021/11/12 10:27:24;;;;;;;1.08;0.20;;;19.50;95.40;;;;;;5077308;28;20047;-77
2021/11/12 10:29:57;;;;;;;0.20;0.15;;;19.50;95.30;;;;;;5081114;28;20180;-74
2021/11/12 10:32:26;;;;;;;0.70;0.30;;;19.60;95.60;;;;;;5079949;28;20035;-73
2021/11/12 10:35:02;;;;;;;0.20;0.20;;;19.50;95.70;;;;;;5080418;28;20035;-74
2021/11/12 10:37:34;;;;;;;0.10;0.10;;;19.50;95.80;;;;;;5080755;28;20032;-77
2021/11/12 10:40:17;;;;;;;0.77;0.30;;;19.50;95.90;;;;;;5077567;28;20467;-77
2021/11/12 10:42:51;;;;;;;1.42;0.17;;;19.50;95.70;;;;;;5086780;28;20303;-75
2021/11/12 10:45:21;;;;;;;0.63;0.13;;;19.50;95.90;;;;;;5067299;28;20032;-75
2021/11/12 10:47:51;;;;;;;0.10;0.00;;;19.50;96.10;;;;;;5084117;28;20110;-76
2021/11/12 10:50:20;;;;;;;0.20;0.20;;;19.40;96.30;;;;;;5091788;28;20074;-77
2021/11/12 10:52:50;;;;;;;0.10;0.03;;;19.30;96.60;;;;;;5055355;28;20043;-77
2021/11/12 10:55:21;;;;;;;0.30;0.00;;;19.20;96.90;;;;;;5076922;28;20040;-77
2021/11/12 10:57:57;;;;;;;0.00;0.00;;;19.10;97.40;;;;;;5088786;28;20075;-75
2021/11/12 11:00:27;;;;;;;0.10;0.03;;;19.00;97.70;;;;;;5090420;28;20035;-74
2021/11/12 11:03:00;;;;;;;0.10;0.00;;;18.90;98.00;;;;;;5063101;28;20028;-74
2021/11/12 11:05:40;;;;;;;0.00;0.00;;;18.80;98.40;;;;;;5079695;28;20589;-76
2021/11/12 11:08:17;;;;;;;0.00;0.00;;;18.80;98.70;;;;;;5088375;28;20024;-75
2021/11/12 11:11:05;;;;;;;0.75;0.00;;;18.80;99.00;;;;;;5081935;28;20137;-75
2021/11/12 11:13:35;;;;;;;3.05;0.00;;;18.70;99.20;;;;;;5082210;28;20039;-77
2021/11/12 11:16:04;;;;;;;0.10;0.00;;;18.60;99.50;;;;;;5060425;28;20062;-75
2021/11/12 11:18:34;;;;;;;0.10;0.00;;;18.50;99.80;;;;;;5081728;28;20035;-77
2021/11/12 11:21:10;;;;;;;0.40;0.08;;;18.50;99.90;;;;;;5078471;28;20028;-76
2021/11/12 11:23:47;;;;;;;0.28;0.10;;;18.40;99.90;;;;;;5065371;28;20117;-77
2021/11/12 11:26:19;;;;;;;0.10;0.10;;;18.40;99.90;;;;;;5085098;28;20032;-73
2021/11/12 11:28:52;;;;;;;0.45;0.28;;;18.30;99.90;;;;;;5075572;28;20028;-74
2021/11/12 11:31:20;;;;;;;0.70;0.63;;;18.30;99.90;;;;;;5078099;28;20028;-75
2021/11/12 11:33:51;;;;;;;0.32;0.20;;;18.20;99.90;;;;;;5080308;28;20536;-76
2021/11/12 11:36:23;;;;;;;0.05;0.05;;;18.20;99.90;;;;;;5076930;28;20028;-74
2021/11/12 11:38:53;;;;;;;0.00;0.00;;;18.20;99.90;;;;;;5078494;28;20028;-80
2021/11/12 11:41:23;;;;;;;0.08;0.05;;;18.20;99.90;;;;;;5078354;28;20034;-76
2021/11/12 11:43:51;;;;;;;0.00;0.00;;;18.20;99.90;;;;;;5074802;28;20024;-74
2021/11/12 11:46:48;;;;;;;0.25;0.10;;;18.20;99.90;;;;;;5076643;28;20521;-74
2021/11/12 11:49:22;;;;;;;0.10;0.10;;;18.20;99.90;;;;;;5069071;28;20064;-76
2021/11/12 11:51:57;;;;;;;0.10;0.10;;;18.20;99.90;;;;;;5073500;28;20036;-76
2021/11/12 11:54:35;;;;;;;0.25;0.08;;;18.10;99.90;;;;;;5079766;28;20040;-76
2021/11/12 11:57:16;;;;;;;0.10;0.03;;;18.10;99.90;;;;;;5075821;28;20459;-75
2021/11/12 11:59:45;;;;;;;0.00;0.00;;;18.10;99.90;;;;;;5085638;28;20028;-74
2021/11/12 12:02:19;;;;;;;0.00;0.00;;;18.10;99.90;;;;;;5081680;28;20040;-73
2021/11/12 12:05:00;;;;;;;0.20;0.08;;;18.20;99.90;;;;;;5082221;28;20078;-75
2021/11/12 12:07:41;;;;;;;2.53;0.10;;;18.10;99.90;;;;;;5086149;28;20024;-75
2021/11/12 12:10:24;;;;;;;0.10;0.00;;;18.10;99.90;;;;;;5087659;28;20463;-76
2021/11/12 12:12:54;;;;;;;0.00;0.00;;;18.20;99.90;;;;;;5086979;28;20028;-74
2021/11/12 12:15:21;;;;;;;0.10;0.00;;;18.20;99.90;;;;;;5077676;28;20027;-74
2021/11/12 12:18:09;;;;;;;0.08;0.00;;;18.10;99.70;;;;;;5080495;28;20028;-73
2021/11/12 12:21:20;;;;;;;0.20;0.00;;;18.10;99.80;;;;;;5081444;28;20029;-74
2021/11/12 13:25:45;;;;;;;0.00;0.00;;;17.10;99.20;;;;;;5078283;28;20064;-74
2021/11/12 13:28:29;;;;;;;0.00;0.00;;;17.10;99.40;;;;;;5088698;28;20424;-74
2021/11/12 13:31:03;;;;;;;0.00;0.00;;;17.10;99.30;;;;;;5075731;28;20474;-73
2021/11/12 13:33:32;;;;;;;0.35;0.00;;;17.00;99.40;;;;;;5090733;28;20048;-74
2021/11/12 13:36:07;;;;;;;0.17;0.00;;;17.00;99.30;;;;;;5090262;28;20176;-73
2021/11/12 13:38:37;;;;;;;0.03;0.00;;;17.00;99.50;;;;;;5083481;28;20025;-75
2021/11/12 13:41:07;;;;;;;0.00;0.00;;;17.00;99.30;;;;;;5087004;28;20527;-75
2021/11/12 13:43:40;;;;;;;0.40;0.00;;;17.00;99.50;;;;;;5089965;28;20056;-74
2021/11/12 13:46:08;;;;;;;0.63;0.00;;;16.90;99.60;;;;;;5070995;28;20035;-74
2021/11/12 13:48:53;;;;;;;0.00;0.00;;;16.80;99.80;;;;;;5084086;28;20059;-75
2021/11/12 13:51:30;;;;;;;0.00;0.00;;;16.70;99.90;;;;;;5088313;28;20028;-74
2021/11/12 13:53:59;;;;;;;0.00;0.00;;;16.60;99.90;;;;;;5094977;28;20035;-75
2021/11/12 13:56:26;;;;;;;0.47;0.13;;;16.60;99.90;;;;;;5082784;28;20035;-75
2021/11/12 13:59:12;;;;;;;0.00;0.00;;;16.50;99.90;;;;;;5077534;28;20483;-75
2021/11/12 14:01:40;;;;;;;0.08;0.00;;;16.50;99.90;;;;;;5078690;28;20068;-75
2021/11/12 14:04:29;;;;;;;0.20;0.10;;;16.40;99.90;;;;;;5060802;28;20032;-74
2021/11/12 14:06:57;;;;;;;1.05;0.00;;;16.40;99.90;;;;;;5075400;28;20353;-75
2021/11/12 14:09:33;;;;;;;0.32;0.00;;;16.40;99.90;;;;;;5074757;28;20016;-74
2021/11/12 14:12:11;;;;;;;0.47;0.30;;;16.50;99.90;;;;;;5087200;28;20459;-74
2021/11/12 14:14:41;;;;;;;0.00;0.00;;;16.50;99.90;;;;;;5074845;28;20054;-74
2021/11/12 14:17:25;;;;;;;0.00;0.00;;;16.50;99.90;;;;;;5090001;28;20035;-73
2021/11/12 14:20:16;;;;;;;0.32;0.00;;;16.40;99.90;;;;;;5091428;28;20028;-74
2021/11/12 14:22:57;;;;;;;0.00;0.00;;;16.40;99.90;;;;;;5092836;28;20032;-74
2021/11/12 14:28:21;;;;;;;0.00;0.00;;;16.40;99.90;;;;;;5081865;28;20028;-73
2021/11/12 14:39:22;;;;;;;0.15;0.00;;;16.20;99.90;;;;;;5081224;28;20020;-73
2021/11/12 14:47:42;;;;;;;0.00;0.00;;;16.10;99.90;;;;;;5074430;28;20028;-74
2021/11/12 14:50:47;;;;;;;0.38;0.10;;;16.10;99.90;;;;;;5088074;28;20032;-72
2021/11/12 14:53:24;;;;;;;0.00;0.00;;;16.10;99.90;;;;;;5092935;28;20167;-72
2021/11/12 14:56:19;;;;;;;0.13;0.10;;;16.00;99.90;;;;;;5090492;28;20024;-72
2021/11/12 14:58:57;;;;;;;0.00;0.00;;;16.00;99.90;;;;;;5072755;28;20427;-72
2021/11/12 15:01:28;;;;;;;0.57;0.20;;;16.00;99.90;;;;;;5085730;28;20526;-73
2021/11/12 15:03:56;;;;;;;0.00;0.00;;;16.00;99.90;;;;;;5084836;28;20055;-73
2021/11/12 15:06:26;;;;;;;0.00;0.00;;;16.00;99.90;;;;;;5087835;28;20044;-74
2021/11/12 15:08:58;;;;;;;0.00;0.00;;;16.00;99.90;;;;;;5086225;28;20106;-74
2021/11/12 15:11:30;;;;;;;1.02;0.10;;;16.00;99.90;;;;;;5090721;28;20048;-75
2021/11/12 15:14:46;;;;;;;0.00;0.00;;;16.00;99.90;;;;;;5079879;28;20044;-73
2021/11/12 15:16:50;;;;;;;0.05;0.00;;;15.90;99.90;;;;;;5067505;28;20041;-75
2021/11/12 15:19:20;;;;;;;0.08;0.08;;;15.90;99.90;;;;;;5091513;28;20028;-73
2021/11/12 15:21:55;;;;;;;0.00;0.00;;;15.90;99.90;;;;;;5091203;28;20024;-73
2021/11/12 15:24:32;;;;;;;0.10;0.10;;;15.90;99.90;;;;;;5093123;28;20486;-74
2021/11/12 15:34:35;;;;;;;0.10;0.10;;;15.80;99.90;;;;;;5086416;28;20123;-74
2021/11/12 15:37:55;;;;;;;0.20;0.10;;;15.80;99.90;;;;;;5075253;28;20029;-74
2021/11/12 15:45:22;;;;;;;0.10;0.00;;;15.70;99.90;;;;;;5075857;28;20069;-73
2021/11/12 15:47:55;;;;;;;0.10;0.10;;;15.60;99.90;;;;;;5076872;28;20640;-74
2021/11/12 15:50:37;;;;;;;0.00;0.00;;;15.60;99.90;;;;;;5090877;28;20039;-72
2021/11/12 15:53:12;;;;;;;0.10;0.10;;;15.60;99.90;;;;;;5085894;28;20032;-75
2021/11/12 15:58:40;;;;;;;0.20;0.10;;;15.70;99.90;;;;;;5084848;28;20124;-75
2021/11/12 16:12:04;;;;;;;0.10;0.10;;;15.60;99.90;;;;;;5090274;28;20024;-74
2021/11/12 16:14:37;;;;;;;0.10;0.10;;;15.60;99.90;;;;;;5095044;28;20055;-73
2021/11/12 16:25:02;;;;;;;0.10;0.10;;;15.40;99.90;;;;;;5081223;28;20033;-75
2021/11/12 16:27:32;;;;;;;0.10;0.10;;;15.40;99.90;;;;;;5077015;28;20028;-75
2021/11/12 16:30:05;;;;;;;0.10;0.10;;;15.40;99.90;;;;;;5085528;28;20040;-75
2021/11/12 16:32:44;;;;;;;0.22;0.13;;;15.40;99.90;;;;;;5073646;28;20387;-74
2021/11/12 16:35:17;;;;;;;1.17;0.20;;;15.40;99.90;;;;;;5083647;28;20033;-75
2021/11/12 16:37:47;;;;;;;1.65;0.10;;;15.40;99.90;;;;;;5074588;28;20793;-76
2021/11/12 16:42:59;;;;;;;0.17;0.15;;;15.40;99.90;;;;;;5071840;28;20044;-74
2021/11/12 16:45:36;;;;;;;0.03;0.03;;;15.40;99.90;;;;;;5073855;28;20157;-73
2021/11/12 16:50:42;;;;;;;0.20;0.00;;;15.40;99.90;;;;;;5073196;28;20016;-73
2021/11/12 16:58:48;;;;;;;0.10;0.08;;;15.20;99.90;;;;;;5071175;28;20460;-74
2021/11/12 17:01:38;;;;;;;0.03;0.00;;;15.30;99.90;;;;;;5061689;28;20063;-75
2021/11/12 17:04:28;;;;;;;0.30;0.10;;;15.30;99.90;;;;;;5091434;28;20063;-74
2021/11/12 17:07:05;;;;;;;0.00;0.00;;;15.30;99.90;;;;;;5089895;28;20026;-74
2021/11/12 17:12:18;;;;;;;0.63;0.10;;;15.40;99.90;;;;;;5079532;28;20048;-74
2021/11/12 17:20:02;;;;;;;0.10;0.00;;;15.40;99.90;;;;;;5082160;28;20032;-73
2021/11/12 17:47:13;;;;;;;0.00;0.00;;;15.10;99.90;;;;;;5090122;28;20105;-75
2021/11/12 17:49:59;;;;;;;0.10;0.00;;;15.00;99.90;;;;;;5093909;28;20028;-75
2021/11/12 18:06:30;;;;;;;0.10;0.03;;;14.60;99.90;;;;;;5055904;28;20497;-74
2021/11/12 18:09:26;;;;;;;0.00;0.00;;;14.50;99.90;;;;;;5097410;28;20028;-76
2021/11/12 21:44:25;;;;;;;0.10;0.05;;;18.20;89.70;;;;;;5086758;28;20344;-73
2021/11/12 21:46:52;;;;;;;0.38;0.00;;;18.50;89.90;;;;;;5094520;28;20077;-74
2021/11/12 21:49:20;;;;;;;0.00;0.00;;;18.90;89.50;;;;;;5097020;28;20024;-75
2021/11/12 21:51:47;;;;;;;0.00;0.00;;;19.10;87.50;;;;;;5094169;28;20097;-73
2021/11/12 21:54:15;;;;;;;0.57;0.10;;;19.30;86.90;;;;;;5095519;28;20047;-74
2021/11/12 21:56:43;;;;;;;0.10;0.10;;;19.10;87.50;;;;;;5096344;28;20059;-75
2021/11/12 21:59:10;;;;;;;0.30;0.00;;;19.40;90.30;;;;;;5093221;28;20074;-73
2021/11/12 22:01:39;;;;;;;1.15;0.05;;;19.80;86.80;;;;;;5088846;28;20020;-73
2021/11/12 22:04:07;;;;;;;0.10;0.10;;;19.70;86.20;;;;;;5087442;28;20035;-74
2021/11/12 22:06:35;;;;;;;0.52;0.05;;;19.60;86.40;;;;;;5094624;28;20024;-73
2021/11/12 22:09:03;;;;;;;0.10;0.00;;;19.40;85.30;;;;;;5093759;28;20028;-74
2021/11/12 22:11:30;;;;;;;0.00;0.00;;;19.30;86.50;;;;;;5089714;28;20020;-74
2021/11/12 22:13:58;;;;;;;0.00;0.00;;;19.70;85.90;;;;;;5082772;28;20031;-75
2021/11/12 22:16:25;;;;;;;0.10;0.00;;;19.60;84.60;;;;;;5092085;28;20135;-78
2021/11/12 22:18:53;;;;;;;0.00;0.00;;;19.50;85.00;;;;;;5088698;28;20110;-77
2021/11/12 22:21:21;;;;;;;0.00;0.00;;;19.70;85.80;;;;;;5080039;28;20378;-75
2021/11/12 22:23:49;;;;;;;0.65;0.20;;;19.80;85.20;;;;;;5089201;28;20020;-74
2021/11/12 22:26:17;;;;;;;0.00;0.00;;;20.10;85.40;;;;;;5091738;28;20024;-75
2021/11/12 22:28:45;;;;;;;0.63;0.03;;;20.40;83.30;;;;;;5089144;28;20023;-73
2021/11/12 22:31:12;;;;;;;0.00;0.00;;;20.40;82.20;;;;;;5084280;28;20024;-73
2021/11/12 22:33:39;;;;;;;0.20;0.00;;;20.50;82.70;;;;;;5082036;28;20048;-73
2021/11/12 22:36:08;;;;;;;0.35;0.00;;;20.50;82.10;;;;;;5083971;28;20356;-74
2021/11/12 22:38:39;;;;;;;0.00;0.00;;;20.50;82.50;;;;;;5083835;28;20400;-73
2021/11/12 22:41:07;;;;;;;0.82;0.05;;;20.60;81.30;;;;;;5088804;28;20102;-74
2021/11/12 22:43:38;;;;;;;0.05;0.00;;;20.50;80.30;;;;;;5090604;28;20482;-74
2021/11/12 22:46:07;;;;;;;0.10;0.00;;;20.40;80.80;;;;;;5084866;28;20029;-73
2021/11/12 22:48:34;;;;;;;0.15;0.08;;;20.40;80.40;;;;;;5089716;28;20024;-74
2021/11/12 22:51:02;;;;;;;0.00;0.00;;;20.40;81.50;;;;;;5085427;28;20020;-74
2021/11/12 22:53:30;;;;;;;0.20;0.00;;;20.20;80.00;;;;;;5078952;28;20470;-73